Peotone Weather
Station Historical Data
 
Daily Summary for August 18, 2018 Units:  English    Metric   Both
« Previous Day
Next Day »
Daily Weekly Monthly Yearly Custom
  Current: High: Low: Average:
Temperature: 67.8 °F 68.7 °F 66.7 °F 67.6 °F
Dew Point: 66.32 °F 66.91 °F 65.23 °F 66.1 °F
Humidity: 95% 95% 94% 95%
Wind Speed: 0mph 2.3mph 0mph 0.1mph
Wind Gust: 2.3mph 3.4mph - -
WindCalm - - North
Pressure: 29.99 in 29.99 in 29.97 in -
Precipitation: 0.01 in      
Historical Graphs
 
 
Tabular Data for August 18, 2018
Time Temperature Dew Point Pressure Wind Wind Speed Wind Gust Humidity Rainfall Rate (Hourly) solar Conditions
00:00 68.7 °F 66.91 °F 29.98 in Calm     94% 0 in 0.00 W/m2
00:04 68.6 °F 66.81 °F 29.99 in Calm     94% 0 in 0.00 W/m2
00:05 68.6 °F 66.81 °F 29.99 in Calm     94% 0 in 0.00 W/m2
00:09 68.4 °F 66.61 °F 29.99 in Calm     94% 0 in 0.00 W/m2
00:14 68.3 °F 66.51 °F 29.99 in Calm     94% 0 in 0.00 W/m2
00:19 68.3 °F 66.51 °F 29.99 in Calm     94% 0 in 0.00 W/m2
00:24 67.9 °F 66.11 °F 29.98 in Calm     94% 0 in 0.00 W/m2
00:29 68.1 °F 66.31 °F 29.98 in Calm     94% 0 in 0.00 W/m2
00:34 68.2 °F 66.72 °F 29.98 in Calm   1.1 mph 95% 0 in 0.00 W/m2
00:39 68.3 °F 66.82 °F 29.98 in Calm     95% 0 in 0.00 W/m2
00:44 68.2 °F 66.72 °F 29.98 in Calm     95% 0 in 0.00 W/m2
00:49 68.2 °F 66.41 °F 29.98 in Calm     94% 0 in 0.00 W/m2
00:54 68 °F 66.21 °F 29.98 in Calm   2.3 mph 94% 0 in 0.00 W/m2
00:59 68.1 °F 66.31 °F 29.98 in Calm   1.1 mph 94% 0 in 0.00 W/m2
01:04 68.2 °F 66.72 °F 29.98 in Calm   1.1 mph 95% 0 in 0.00 W/m2
01:09 68.1 °F 66.31 °F 29.98 in Calm   1.1 mph 94% 0 in 0.00 W/m2
01:14 68.1 °F 66.31 °F 29.98 in Calm     94% 0 in 0.00 W/m2
01:19 68 °F 66.21 °F 29.98 in Calm     94% 0 in 0.00 W/m2
01:24 67.9 °F 66.11 °F 29.98 in Calm   2.3 mph 94% 0 in 0.00 W/m2
01:29 68 °F 66.21 °F 29.98 in Calm   1.1 mph 94% 0 in 0.00 W/m2
01:34 67.8 °F 66.01 °F 29.98 in Calm     94% 0 in 0.00 W/m2
01:39 68.1 °F 66.62 °F 29.97 in Calm     95% 0.01 in 0.00 W/m2
01:44 67.9 °F 66.11 °F 29.98 in Calm     94% 0.01 in 0.00 W/m2
01:49 68.1 °F 66.62 °F 29.97 in Calm     95% 0.01 in 0.00 W/m2
01:54 68.1 °F 66.62 °F 29.97 in Calm     95% 0.01 in 0.00 W/m2
01:59 67.9 °F 66.42 °F 29.97 in Calm     95% 0.01 in 0.00 W/m2
02:04 67.9 °F 66.42 °F 29.97 in Calm     95% 0.01 in 0.00 W/m2
02:09 67.9 °F 66.42 °F 29.97 in Calm     95% 0.01 in 0.00 W/m2
02:14 67.5 °F 65.72 °F 29.97 in Calm     94% 0.01 in 0.00 W/m2
02:19 67.7 °F 66.22 °F 29.97 in Calm     95% 0.01 in 0.00 W/m2
02:24 67.8 °F 66.32 °F 29.97 in Calm     95% 0.01 in 0.00 W/m2
02:29 67.6 °F 66.12 °F 29.97 in Calm     95% 0.01 in 0.00 W/m2
02:34 67.9 °F 66.42 °F 29.97 in Calm     95% 0.01 in 0.00 W/m2
02:39 67.9 °F 66.42 °F 29.97 in Calm   2.3 mph 95% 0 in 0.00 W/m2
02:44 68 °F 66.52 °F 29.97 in Calm   1.1 mph 95% 0 in 0.00 W/m2
02:49 68.1 °F 66.62 °F 29.97 in Calm     95% 0 in 0.00 W/m2
02:54 68.1 °F 66.62 °F 29.98 in Calm     95% 0 in 0.00 W/m2
02:59 68.1 °F 66.62 °F 29.98 in Calm     95% 0 in 0.00 W/m2
03:04 67.8 °F 66.32 °F 29.97 in Calm     95% 0 in 0.00 W/m2
03:09 67.4 °F 65.62 °F 29.97 in Calm     94% 0 in 0.00 W/m2
03:14 67.4 °F 65.92 °F 29.97 in Calm     95% 0 in 0.00 W/m2
03:19 67.3 °F 65.82 °F 29.97 in Calm     95% 0 in 0.00 W/m2
03:24 67.2 °F 65.72 °F 29.98 in Calm     95% 0 in 0.00 W/m2
03:29 67.3 °F 65.82 °F 29.98 in Calm     95% 0 in 0.00 W/m2
03:34 67.4 °F 65.92 °F 29.98 in Calm     95% 0 in 0.00 W/m2
03:39 67.3 °F 65.82 °F 29.98 in Calm     95% 0 in 0.00 W/m2
03:44 67 °F 65.52 °F 29.98 in Calm     95% 0 in 0.00 W/m2
03:49 66.9 °F 65.43 °F 29.98 in Calm     95% 0 in 0.00 W/m2
03:54 67.1 °F 65.62 °F 29.98 in Calm     95% 0 in 0.00 W/m2
03:59 67.1 °F 65.62 °F 29.98 in Calm     95% 0 in 0.00 W/m2
04:04 67.2 °F 65.72 °F 29.98 in Calm     95% 0 in 0.00 W/m2
04:09 67.1 °F 65.62 °F 29.98 in Calm     95% 0 in 0.00 W/m2
04:14 67.2 °F 65.72 °F 29.98 in Calm   1.1 mph 95% 0 in 0.00 W/m2
04:19 66.9 °F 65.43 °F 29.98 in Calm     95% 0 in 0.00 W/m2
04:24 67.1 °F 65.62 °F 29.98 in Calm     95% 0 in 0.00 W/m2
04:29 67 °F 65.52 °F 29.98 in Calm     95% 0 in 0.00 W/m2
04:34 67 °F 65.52 °F 29.98 in Calm   2.3 mph 95% 0 in 0.00 W/m2
04:39 66.9 °F 65.43 °F 29.98 in Calm   1.1 mph 95% 0 in 0.00 W/m2
04:44 66.9 °F 65.43 °F 29.98 in Calm   1.1 mph 95% 0 in 0.00 W/m2
04:49 66.7 °F 65.23 °F 29.98 in Calm   2.3 mph 95% 0 in 0.00 W/m2
04:54 66.7 °F 65.23 °F 29.98 in Calm   2.3 mph 95% 0 in 0.00 W/m2
04:59 66.9 °F 65.43 °F 29.98 in Calm   1.1 mph 95% 0 in 0.00 W/m2
05:04 67.1 °F 65.62 °F 29.98 in Calm   2.3 mph 95% 0 in 0.00 W/m2
05:09 67.3 °F 65.82 °F 29.98 in Calm   2.3 mph 95% 0 in 0.00 W/m2
05:14 67.9 °F 66.42 °F 29.98 in Calm   3.4 mph 95% 0 in 0.00 W/m2
05:19 67.8 °F 66.32 °F 29.98 in Calm     95% 0 in 0.00 W/m2
05:24 67.6 °F 66.12 °F 29.98 in Calm     95% 0 in 0.00 W/m2
05:29 67.5 °F 66.02 °F 29.99 in Calm     95% 0 in 0.00 W/m2
05:34 67.4 °F 65.92 °F 29.99 in Calm     95% 0 in 0.00 W/m2
05:39 67.3 °F 65.82 °F 29.99 in Calm   2.3 mph 95% 0 in 0.00 W/m2
05:44 67.1 °F 65.62 °F 29.99 in Calm     95% 0 in 0.00 W/m2
05:49 67.1 °F 65.62 °F 29.99 in Calm     95% 0 in 0.00 W/m2
05:54 67.1 °F 65.62 °F 29.99 in Calm     95% 0 in 0.00 W/m2
05:59 67.2 °F 65.72 °F 29.99 in North 2.3 mph 3.4 mph 95% 0 in 0.00 W/m2
06:04 67.5 °F 66.02 °F 29.99 in North 2.3 mph 3.4 mph 95% 0 in 0.00 W/m2
06:09 67.8 °F 66.32 °F 29.99 in Calm   2.3 mph 95% 0 in 0.00 W/m2
Juneau County Weather
Compliments of Weather Underground - 2 mb